Aérodrome :
LOGIN :

S'inscrire | Disclaimer

   EN    FR    IT 

 










Légende :    VFR   VFR Marginal   IFR   IFR Intensif   IFR Très Intensif
Visi : 
Plafond : 
>= 8 km
>= 3000ft
5 à 8 km
1000 à 3000 ft
1500m à 5 km
500 à 1000 ft
800 à 1500m
200 à 500 ft
< 800m
< 200 ft
Symboles :   Orages  Brouillard  Fortes neiges  Fortes précipitations  Vent > 20 kt
SIGMETs :   Divers  Orages  Givrage  Turbulence  Onde Orograph.  Cendres Volcan.






- Altitude de l'aérodrome : 935 ft


EBFS - Florennes

DERNIER METAR :
  • 181825Z AUTO 35003KT 5000 +RA FEW003/// SCT032/// BKN042/// 17/16 Q1012 WHT

METARs EXPIRÉS :
  • 181742Z AUTO 32003KT 9999 -RA SCT015/// BKN042/// OVC050/// 17/16 Q1012 WHT
  • 181725Z AUTO 34003KT 9999 -RA FEW014/// SCT041/// BKN050/// 17/16 Q1012 BLU
  • 181717Z AUTO 33004KT 9999 -RA FEW005/// SCT014/// BKN046/// 17/16 Q1012 GRN
  • 181655Z AUTO 32004KT 9999 -RA SCT005/// BKN007/// OVC026/// 18/16 Q1012 YLO
  • 181642Z AUTO 32005KT 9999 SCT006/// BKN028/// BKN034/// 18/17 Q1012 YLO
  • 181637Z AUTO 31004KT 9999 FEW006/// SCT009/// BKN031/// 18/17 Q1012 GRN
  • 181625Z AUTO 29005KT 9999 FEW007/// SCT032/// BKN038/// 18/17 Q1012 BLU
  • 181555Z AUTO 29005KT 9999 OVC060/// 18/16 Q1012 BLU
  • 181543Z 28005KT 9999 FEW030 BKN070 18/16 Q1012 BLU FCST CANCEL
  • 181525Z 23007KT 9999 FEW030 BKN070 18/16 Q1012 BLU BLU
  • 181455Z 22007KT 9999 FEW030 BKN070 18/16 Q1012 BLU BLU
  • 181453Z 22007KT 9999 FEW030 BKN070 18/16 Q1012 BLU BLU
  • 181433Z 21008KT 9999 FEW015 BKN070 19/15 Q1012 BLU BLU TEMPO WHT
  • 181355Z 20009KT 9999 SCT015 BKN040 19/16 Q1012 WHT WHT
  • 181351Z 20008KT 9999 SCT015 BKN040 19/16 Q1012 WHT WHT

TAF TAF EBFS
Valide du 18 à 19h jusqu'au 19 à 07h UTC


181602Z 1819/1907 36005KT 9999 BKN010 BKN015 BKN280
TEMPO 1819/1820 3000 SHRA SCT006 BKN010TCU BKN015
PROB30
TEMPO 1819/1820 1500 TSRAGR SCT004 BKN008CB BKN012
BECMG 1819/1821 3000 BR BKN004 BKN007
TEMPO 1821/1904 1000 -RADZ BKN002 BKN004 OVC012
TEMPO 1822/1904 0500 FG BKN001 OVC002



MET'MAP, la Météo Aéronautique d'un coup d'oeil ! - Copyright ORBIFLY Décembre 2007 - Disclaimer

ORBIFLY MET'MAP TEAM :

Programmation & Développement : Alexandra Zaïnal
Sur une idée originale de : Baudouin d'Aumeries
Soutien technique & logistique : Manuel Goepfert
Assistance : Marc-Olivier Méhu




SOURCES & CREDITS :

   NOAA